Time;durP1;ratioP1;P1;durP2;ratioP2;P2;SDS_P1;SDS_P2;PMS_P1;PMS_P2;Temp;Humidity;BMP_temperature;BMP_pressure;BME280_temperature;BME280_humidity;BME280_pressure;Samples;Min_cycle;Max_cycle;Signal;HPM_P1;HPM_P2
2022/02/04 00:05:50;;;;;;;9.67;8.13;;;;;;;;;;5125719;27;20545;-79
2022/02/04 00:08:42;;;;;;;10.60;8.37;;;;;;;;;;5125937;28;20444;-77
2022/02/04 00:22:39;;;;;;;9.97;8.17;;;;;;;;;;5132369;27;20413;-81
2022/02/04 00:25:14;;;;;;;10.13;7.07;;;;;;;;;;5083592;28;20480;-77
2022/02/04 00:27:42;;;;;;;9.88;7.03;;;;;;;;;;5082489;28;20445;-79
2022/02/04 00:30:15;;;;;;;9.53;7.77;;;;;;;;;;5082266;28;20816;-81
2022/02/04 00:32:44;;;;;;;8.83;6.63;;;;;;;;;;5080804;28;21085;-80
2022/02/04 00:35:23;;;;;;;9.07;7.47;;;;;;;;;;5081462;28;20493;-78
2022/02/04 00:37:58;;;;;;;8.40;6.80;;;;;;;;;;5084850;28;20450;-81
2022/02/04 00:40:29;;;;;;;8.20;6.63;;;;;;;;;;5083172;28;20454;-82
2022/02/04 00:43:00;;;;;;;8.17;6.30;;;;;;;;;;5093540;28;20464;-78
2022/02/04 00:45:32;;;;;;;10.40;6.80;;;;;;;;;;5109576;28;21353;-78
2022/02/04 00:48:10;;;;;;;9.10;6.70;;;;;;;;;;5112577;28;20987;-80
2022/02/04 00:50:52;;;;;;;9.00;7.20;;;;;;;;;;5100184;28;21222;-80
2022/02/04 00:53:28;;;;;;;9.00;7.10;;;;;;;;;;5092105;28;20966;-80
2022/02/04 00:56:07;;;;;;;8.87;6.83;;;;;;;;;;5094102;28;20435;-80
2022/02/04 01:28:08;;;;;;;7.47;6.20;;;;;;;;;;5107786;28;20484;-80
2022/02/04 01:30:38;;;;;;;6.23;5.23;;;;;;;;;;5111967;28;20493;-79
2022/02/04 01:33:06;;;;;;;5.93;5.30;;;;;;;;;;5105483;27;20451;-81
2022/02/04 01:35:33;;;;;;;6.60;5.33;;;;;;;;;;5117038;27;20462;-80
2022/02/04 01:38:01;;;;;;;4.93;4.03;;;;;;;;;;5117237;27;20434;-81
2022/02/04 01:40:28;;;;;;;5.40;4.70;;;;;;;;;;5107753;28;20489;-80
2022/02/04 01:42:55;;;;;;;5.50;4.67;;;;;;;;;;5111272;28;20426;-81
2022/02/04 01:45:23;;;;;;;6.30;5.17;;;;;;;;;;5103782;28;20466;-80
2022/02/04 01:47:55;;;;;;;5.15;4.40;;;;;;;;;;5091260;28;20865;-80
2022/02/04 01:50:23;;;;;;;5.03;4.17;;;;;;;;;;5098369;28;20228;-79
2022/02/04 01:52:50;;;;;;;5.47;4.70;;;;;;;;;;5111223;28;20865;-79
2022/02/04 01:55:18;;;;;;;5.40;4.07;;;;;;;;;;5112003;27;20969;-81
2022/02/04 01:57:45;;;;;;;6.00;4.97;;;;;;;;;;5117076;27;20446;-79
2022/02/04 02:00:13;;;;;;;5.30;4.10;;;;;;;;;;5128624;27;20997;-78
2022/02/04 02:02:40;;;;;;;4.50;4.03;;;;;;;;;;5119024;27;20458;-80
2022/02/04 02:05:08;;;;;;;4.73;3.90;;;;;;;;;;5108268;28;20450;-80
2022/02/04 02:07:41;;;;;;;5.50;4.00;;;;;;;;;;5111087;28;20533;-80
2022/02/04 02:10:11;;;;;;;5.03;4.33;;;;;;;;;;5106184;28;20498;-81
2022/02/04 02:12:48;;;;;;;5.07;4.20;;;;;;;;;;5112493;28;20434;-78
2022/02/04 02:15:22;;;;;;;4.43;3.90;;;;;;;;;;5111484;28;20713;-79
2022/02/04 02:40:00;;;;;;;3.70;3.13;;;;;;;;;;5114575;27;20430;-78
2022/02/04 02:42:28;;;;;;;5.27;3.43;;;;;;;;;;5108047;28;20453;-80
2022/02/04 02:45:10;;;;;;;4.03;3.63;;;;;;;;;;5109385;27;20434;-79
2022/02/04 02:47:47;;;;;;;4.47;3.60;;;;;;;;;;5099558;28;20459;-80
2022/02/04 02:50:38;;;;;;;4.83;4.10;;;;;;;;;;5085743;28;20490;-81
2022/02/04 02:53:28;;;;;;;3.63;3.00;;;;;;;;;;5103229;27;20430;-81
2022/02/04 02:56:22;;;;;;;6.57;3.50;;;;;;;;;;5114519;27;20445;-79
2022/02/04 02:58:55;;;;;;;4.77;4.00;;;;;;;;;;5129379;27;20930;-79
2022/02/04 03:01:22;;;;;;;4.53;4.03;;;;;;;;;;5107872;27;21148;-82
2022/02/04 03:03:54;;;;;;;5.13;4.50;;;;;;;;;;5093309;28;20466;-80
2022/02/04 03:06:21;;;;;;;5.00;4.20;;;;;;;;;;5089787;28;20436;-78
2022/02/04 03:08:48;;;;;;;4.30;3.90;;;;;;;;;;5101394;27;20481;-79
2022/02/04 03:11:17;;;;;;;4.50;3.90;;;;;;;;;;5112881;27;20463;-79
2022/02/04 03:13:44;;;;;;;5.00;4.30;;;;;;;;;;5121050;27;20422;-80
2022/02/04 03:16:15;;;;;;;5.17;4.10;;;;;;;;;;5130207;27;20448;-80
2022/02/04 03:18:46;;;;;;;4.30;3.90;;;;;;;;;;5110054;27;20458;-81
2022/02/04 03:21:15;;;;;;;5.03;4.00;;;;;;;;;;5108795;28;20515;-80
2022/02/04 03:23:47;;;;;;;4.60;4.20;;;;;;;;;;5109970;28;20444;-79
2022/02/04 03:26:23;;;;;;;4.70;4.20;;;;;;;;;;5101808;28;20469;-79
2022/02/04 03:28:52;;;;;;;4.30;3.63;;;;;;;;;;5111292;28;20469;-81
2022/02/04 03:31:19;;;;;;;4.20;3.67;;;;;;;;;;5113529;27;21024;-80
2022/02/04 03:33:47;;;;;;;4.13;3.73;;;;;;;;;;5115619;28;20434;-81
2022/02/04 03:36:14;;;;;;;6.20;4.93;;;;;;;;;;5121919;27;20434;-80
2022/02/04 03:38:41;;;;;;;5.57;4.50;;;;;;;;;;5129896;27;20964;-80
2022/02/04 03:41:11;;;;;;;5.00;4.37;;;;;;;;;;5115555;27;20482;-79
2022/02/04 03:43:38;;;;;;;5.57;4.70;;;;;;;;;;5109910;28;20461;-79
2022/02/04 03:46:06;;;;;;;4.93;4.00;;;;;;;;;;5110335;28;20445;-80
2022/02/04 03:48:34;;;;;;;5.63;4.30;;;;;;;;;;5093742;28;20455;-80
2022/02/04 03:51:01;;;;;;;5.10;4.60;;;;;;;;;;5090973;28;20490;-80
2022/02/04 03:53:28;;;;;;;6.40;4.43;;;;;;;;;;5106103;28;20459;-80
2022/02/04 03:55:55;;;;;;;5.77;4.77;;;;;;;;;;5114452;28;20455;-80
2022/02/04 03:58:22;;;;;;;6.32;4.45;;;;;;;;;;5109703;28;20450;-80
2022/02/04 04:00:50;;;;;;;4.30;3.87;;;;;;;;;;5109100;28;20220;-81
2022/02/04 04:03:18;;;;;;;5.73;4.13;;;;;;;;;;5105276;28;20550;-78
2022/02/04 04:05:48;;;;;;;4.47;4.07;;;;;;;;;;5108205;28;20435;-80
2022/02/04 04:08:17;;;;;;;5.10;4.10;;;;;;;;;;5107387;28;20813;-79
2022/02/04 04:10:45;;;;;;;6.83;4.90;;;;;;;;;;5101007;28;20478;-78
2022/02/04 04:13:13;;;;;;;5.87;4.37;;;;;;;;;;5113158;28;20546;-79
2022/02/04 04:15:40;;;;;;;4.63;4.23;;;;;;;;;;5121504;27;20461;-81
2022/02/04 04:18:12;;;;;;;4.60;4.10;;;;;;;;;;5133838;27;20433;-80
2022/02/04 04:20:41;;;;;;;4.20;3.80;;;;;;;;;;5132840;27;21055;-82
2022/02/04 04:23:08;;;;;;;5.10;4.20;;;;;;;;;;5132524;27;20957;-81
2022/02/04 04:25:35;;;;;;;4.70;3.92;;;;;;;;;;5132781;27;20445;-82
2022/02/04 04:28:02;;;;;;;5.60;4.57;;;;;;;;;;5115592;27;20196;-81
2022/02/04 04:30:30;;;;;;;4.83;3.83;;;;;;;;;;5112928;28;20488;-78
2022/02/04 04:32:58;;;;;;;5.17;4.30;;;;;;;;;;5116544;27;20429;-80
2022/02/04 04:35:26;;;;;;;5.87;4.40;;;;;;;;;;5115629;27;20926;-79
2022/02/04 04:38:00;;;;;;;5.93;4.40;;;;;;;;;;5124252;27;20540;-79
2022/02/04 04:40:48;;;;;;;5.00;3.90;;;;;;;;;;5132876;27;20458;-80
2022/02/04 04:43:28;;;;;;;5.87;3.60;;;;;;;;;;5106918;27;20493;-80
2022/02/04 04:46:21;;;;;;;3.90;3.50;;;;;;;;;;5112837;28;20468;-81
2022/02/04 05:26:46;;;;;;;3.80;3.50;;;;;;;;;;5109828;28;20430;-80
2022/02/04 05:29:15;;;;;;;4.50;3.30;;;;;;;;;;5103555;28;20475;-81
2022/02/04 05:31:42;;;;;;;4.73;3.50;;;;;;;;;;5115119;27;20512;-80
2022/02/04 05:34:09;;;;;;;3.90;3.07;;;;;;;;;;5119804;27;20427;-81
2022/02/04 05:36:42;;;;;;;4.40;3.43;;;;;;;;;;5130938;27;20508;-80
2022/02/04 05:41:51;;;;;;;3.70;3.40;;;;;;;;;;5067757;28;20429;-81
2022/02/04 05:44:19;;;;;;;3.93;3.43;;;;;;;;;;5067621;28;20539;-81
2022/02/04 05:46:51;;;;;;;3.80;3.37;;;;;;;;;;5057728;28;20465;-79
2022/02/04 05:49:20;;;;;;;3.60;3.13;;;;;;;;;;5070348;28;20528;-81
2022/02/04 05:51:56;;;;;;;4.20;3.67;;;;;;;;;;5071493;28;20546;-80
2022/02/04 05:54:36;;;;;;;5.60;3.57;;;;;;;;;;5065231;28;20443;-80
2022/02/04 05:57:10;;;;;;;6.07;3.70;;;;;;;;;;5067258;28;20440;-80
2022/02/04 05:59:59;;;;;;;3.57;3.27;;;;;;;;;;5080209;28;20446;-81
2022/02/04 06:02:32;;;;;;;3.80;2.90;;;;;;;;;;5111160;28;20427;-79
2022/02/04 06:05:08;;;;;;;3.77;3.00;;;;;;;;;;5094100;28;20458;-81
2022/02/04 06:07:48;;;;;;;2.60;2.30;;;;;;;;;;5092820;28;20849;-82
2022/02/04 06:10:35;;;;;;;3.10;2.23;;;;;;;;;;5106225;27;20481;-80
2022/02/04 06:13:19;;;;;;;2.73;2.53;;;;;;;;;;5117600;27;20486;-79
2022/02/04 06:23:49;;;;;;;2.77;1.73;;;;;;;;;;5110017;28;20438;-78
2022/02/04 06:26:16;;;;;;;2.13;1.93;;;;;;;;;;5102982;28;20979;-80
2022/02/04 06:28:45;;;;;;;4.03;1.57;;;;;;;;;;5091994;28;20478;-78
2022/02/04 06:31:12;;;;;;;2.73;2.07;;;;;;;;;;5112393;28;20521;-79
2022/02/04 06:33:42;;;;;;;2.60;2.40;;;;;;;;;;5116429;27;20870;-79
2022/02/04 06:36:09;;;;;;;2.67;2.20;;;;;;;;;;5115465;27;20821;-78
2022/02/04 06:38:37;;;;;;;2.80;2.40;;;;;;;;;;5091643;27;20443;-78
2022/02/04 06:41:04;;;;;;;4.73;2.23;;;;;;;;;;5088823;28;21052;-78
2022/02/04 06:43:32;;;;;;;2.43;2.20;;;;;;;;;;5099701;28;20765;-78
2022/02/04 06:46:00;;;;;;;2.73;2.30;;;;;;;;;;5100868;28;20561;-79
2022/02/04 06:48:27;;;;;;;2.37;2.00;;;;;;;;;;5102467;28;20470;-80
2022/02/04 06:50:54;;;;;;;2.77;2.27;;;;;;;;;;5115159;27;20571;-79
2022/02/04 06:53:22;;;;;;;6.30;2.40;;;;;;;;;;5116337;27;20454;-79
2022/02/04 06:55:49;;;;;;;3.00;2.10;;;;;;;;;;5108400;28;20434;-78
2022/02/04 06:58:16;;;;;;;2.77;2.50;;;;;;;;;;5106234;28;20443;-78
2022/02/04 07:00:43;;;;;;;3.57;2.80;;;;;;;;;;5088397;28;20473;-79
2022/02/04 07:03:12;;;;;;;2.80;2.50;;;;;;;;;;5101829;28;20529;-79
2022/02/04 07:05:42;;;;;;;5.20;3.93;;;;;;;;;;5086702;28;20462;-79
2022/02/04 07:08:16;;;;;;;5.83;3.40;;;;;;;;;;5111035;27;20442;-80
2022/02/04 07:11:03;;;;;;;3.27;2.97;;;;;;;;;;5113607;27;20831;-81
2022/02/04 07:13:42;;;;;;;6.30;3.20;;;;;;;;;;5094492;27;20451;-78
2022/02/04 07:16:24;;;;;;;4.53;3.60;;;;;;;;;;5105491;28;20434;-81
2022/02/04 07:21:35;;;;;;;3.93;3.40;;;;;;;;;;5102111;28;20474;-80
2022/02/04 07:24:02;;;;;;;5.57;3.83;;;;;;;;;;5104463;28;20485;-78
2022/02/04 07:26:30;;;;;;;4.60;3.77;;;;;;;;;;5111412;27;20441;-79
2022/02/04 07:28:57;;;;;;;4.43;3.50;;;;;;;;;;5112487;27;20469;-81
2022/02/04 07:31:25;;;;;;;3.73;3.27;;;;;;;;;;5100895;28;20482;-85
2022/02/04 07:34:09;;;;;;;4.17;3.47;;;;;;;;;;5106442;28;20451;-75
2022/02/04 07:41:58;;;;;;;3.53;2.70;;;;;;;;;;5095643;28;21014;-80
2022/02/04 07:44:25;;;;;;;5.70;3.70;;;;;;;;;;5095753;28;20430;-80
2022/02/04 07:46:53;;;;;;;5.57;3.80;;;;;;;;;;5109548;28;20802;-81
2022/02/04 07:49:21;;;;;;;6.87;3.50;;;;;;;;;;5104226;28;20451;-82
2022/02/04 07:51:48;;;;;;;5.03;2.97;;;;;;;;;;5102505;28;20482;-76
2022/02/04 07:54:15;;;;;;;3.27;2.70;;;;;;;;;;5112642;28;20434;-77
2022/02/04 07:56:42;;;;;;;4.30;2.60;;;;;;;;;;5109616;28;20463;-82
2022/02/04 07:59:10;;;;;;;3.10;2.60;;;;;;;;;;5100572;28;20442;-81
2022/02/04 08:01:38;;;;;;;3.90;2.80;;;;;;;;;;5107160;28;20470;-77
2022/02/04 08:04:12;;;;;;;3.63;2.80;;;;;;;;;;5111343;27;20443;-78
2022/02/04 08:06:44;;;;;;;4.50;3.13;;;;;;;;;;5119206;27;20434;-81
2022/02/04 08:09:19;;;;;;;3.60;2.50;;;;;;;;;;5106661;27;20434;-79
2022/02/04 08:12:07;;;;;;;4.80;3.07;;;;;;;;;;5109524;28;21043;-79
2022/02/04 08:14:52;;;;;;;3.80;2.97;;;;;;;;;;5108713;28;20429;-78
2022/02/04 08:17:37;;;;;;;5.30;3.47;;;;;;;;;;5106273;28;20954;-78
2022/02/04 08:20:24;;;;;;;10.23;3.10;;;;;;;;;;5123220;27;20480;-78
2022/02/04 08:23:14;;;;;;;3.70;3.40;;;;;;;;;;5116411;27;20446;-79
2022/02/04 08:26:02;;;;;;;5.53;3.37;;;;;;;;;;5110699;27;20472;-79
2022/02/04 08:37:41;;;;;;;2.33;2.00;;;;;;;;;;5058448;28;20767;-81
2022/02/04 08:52:37;;;;;;;1.80;1.70;;;;;;;;;;4831537;29;20742;-80
2022/02/04 09:01:21;;;;;;;3.50;2.40;;;;;;;;;;5064083;22;20510;-81
2022/02/04 09:03:52;;;;;;;2.87;2.43;;;;;;;;;;5061260;28;20465;-80
2022/02/04 09:06:44;;;;;;;2.93;2.23;;;;;;;;;;5058944;28;20498;-79
2022/02/04 09:09:25;;;;;;;2.60;2.40;;;;;;;;;;5044230;28;20564;-81
2022/02/04 09:12:23;;;;;;;2.73;2.50;;;;;;;;;;5070337;28;20479;-80
2022/02/04 09:17:58;;;;;;;3.00;2.20;;;;;;;;;;5060585;28;20492;-79
2022/02/04 09:20:29;;;;;;;3.70;2.27;;;;;;;;;;5053345;28;20465;-80
2022/02/04 09:23:08;;;;;;;3.60;2.97;;;;;;;;;;5071601;28;20452;-79
2022/02/04 09:25:47;;;;;;;2.27;2.07;;;;;;;;;;5061691;28;20506;-79
2022/02/04 09:28:29;;;;;;;2.40;2.20;;;;;;;;;;5054691;28;20443;-82
2022/02/04 09:30:58;;;;;;;2.40;2.20;;;;;;;;;;5040156;28;20473;-81
2022/02/04 09:33:25;;;;;;;2.20;2.00;;;;;;;;;;5058410;28;20956;-79
2022/02/04 09:35:52;;;;;;;2.77;2.57;;;;;;;;;;5058333;28;20563;-75
2022/02/04 09:38:19;;;;;;;2.97;2.57;;;;;;;;;;5061879;28;20956;-78
2022/02/04 09:40:46;;;;;;;2.83;2.30;;;;;;;;;;5062292;28;21008;-83
2022/02/04 09:43:13;;;;;;;1.73;1.63;;;;;;;;;;5064093;28;20452;-81
2022/02/04 09:45:41;;;;;;;2.00;1.70;;;;;;;;;;5065181;28;20444;-82
2022/02/04 09:48:11;;;;;;;2.83;1.60;;;;;;;;;;5056003;28;20536;-79
2022/02/04 09:50:44;;;;;;;2.27;1.77;;;;;;;;;;5057296;28;21007;-80
2022/02/04 10:09:52;;;;;;;2.07;1.63;;;;;;;;;;5058973;28;20614;-78
2022/02/04 10:13:57;;;;;;;1.90;1.70;;;;;;;;;;5056282;28;20465;-78
2022/02/04 10:18:48;;;;;;;3.03;2.50;;;;;;;;;;5068815;28;20435;-78
2022/02/04 10:21:17;;;;;;;2.23;1.33;;;;;;;;;;5065184;28;20511;-80
2022/02/04 10:23:46;;;;;;;2.03;1.50;;;;;;;;;;5066813;28;20452;-81
2022/02/04 10:26:28;;;;;;;2.17;1.77;;;;;;;;;;5053534;28;20441;-79
2022/02/04 10:28:56;;;;;;;2.20;1.47;;;;;;;;;;5067409;28;20917;-76
2022/02/04 11:03:50;;;;;;;1.67;1.40;;;;;;;;;;3246968;26;20511;-78
2022/02/04 11:07:07;;;;;;;2.33;1.10;;;;;;;;;;5062617;28;20972;-78
2022/02/04 11:51:49;;;;;;;1.87;1.13;;;;;;;;;;5640953;22;20820;-81
2022/02/04 11:54:33;;;;;;;2.37;1.10;;;;;;;;;;5055995;28;20455;-82
2022/02/04 12:21:24;;;;;;;2.40;1.33;;;;;;;;;;5119381;22;20483;-81
2022/02/04 12:27:18;;;;;;;1.70;1.30;;;;;;;;;;5043534;28;20444;-79
2022/02/04 12:29:47;;;;;;;1.63;1.30;;;;;;;;;;5047900;28;20907;-77
2022/02/04 12:32:19;;;;;;;1.83;1.30;;;;;;;;;;5037046;28;20858;-79
2022/02/04 12:34:48;;;;;;;1.67;1.20;;;;;;;;;;5032525;28;20445;-79
2022/02/04 12:37:19;;;;;;;2.83;1.57;;;;;;;;;;5040642;28;20873;-80
2022/02/04 12:39:46;;;;;;;2.53;1.50;;;;;;;;;;5032048;28;20458;-80
2022/02/04 12:42:17;;;;;;;1.47;1.07;;;;;;;;;;5043449;28;20457;-80
2022/02/04 12:44:45;;;;;;;1.60;1.10;;;;;;;;;;5043360;28;20788;-81
2022/02/04 12:47:13;;;;;;;1.40;1.20;;;;;;;;;;5047894;28;20546;-80
2022/02/04 12:49:47;;;;;;;1.93;1.10;;;;;;;;;;5041017;28;20881;-80
2022/02/04 12:52:19;;;;;;;1.67;1.10;;;;;;;;;;5043555;28;20484;-78
2022/02/04 12:54:51;;;;;;;1.60;1.13;;;;;;;;;;5038517;28;20844;-81
2022/02/04 13:00:05;;;;;;;1.30;1.10;;;;;;;;;;5032631;28;20465;-77
2022/02/04 13:03:00;;;;;;;1.43;1.00;;;;;;;;;;5037046;28;20449;-79
2022/02/04 13:08:15;;;;;;;1.73;1.20;;;;;;;;;;5046009;28;20903;-80
2022/02/04 13:10:45;;;;;;;2.30;1.20;;;;;;;;;;5032905;28;20458;-81
2022/02/04 13:13:14;;;;;;;3.20;1.33;;;;;;;;;;5036977;28;20477;-80
2022/02/04 13:15:42;;;;;;;1.43;1.10;;;;;;;;;;5036991;28;20513;-81
2022/02/04 13:18:10;;;;;;;1.73;1.20;;;;;;;;;;5036511;28;20437;-79
2022/02/04 13:20:38;;;;;;;2.80;1.73;;;;;;;;;;5033509;28;20473;-78
2022/02/04 13:23:07;;;;;;;1.60;1.40;;;;;;;;;;5038766;28;20476;-82
2022/02/04 13:25:35;;;;;;;1.83;1.30;;;;;;;;;;5034081;28;20452;-78
2022/02/04 13:28:13;;;;;;;1.60;1.10;;;;;;;;;;5036122;28;20442;-81
2022/02/04 13:30:45;;;;;;;1.23;1.13;;;;;;;;;;5045260;28;20487;-81
2022/02/04 13:33:16;;;;;;;2.60;1.73;;;;;;;;;;5035916;28;20985;-82
2022/02/04 13:35:44;;;;;;;2.20;1.43;;;;;;;;;;5033111;28;20461;-81
2022/02/04 13:38:17;;;;;;;1.23;1.13;;;;;;;;;;5044942;28;20454;-77
2022/02/04 13:46:08;;;;;;;4.83;1.67;;;;;;;;;;4996828;28;20549;-78
2022/02/04 13:48:50;;;;;;;1.73;1.50;;;;;;;;;;4990189;28;20456;-78
2022/02/04 13:51:24;;;;;;;2.70;1.80;;;;;;;;;;4984409;28;20775;-80
2022/02/04 13:54:06;;;;;;;2.27;1.70;;;;;;;;;;4990045;28;20452;-77
2022/02/04 13:56:43;;;;;;;2.70;1.80;;;;;;;;;;4981704;28;20503;-78
2022/02/04 13:59:17;;;;;;;2.30;1.77;;;;;;;;;;4972665;28;20487;-78
2022/02/04 14:01:55;;;;;;;2.30;1.73;;;;;;;;;;4981995;28;20436;-77
2022/02/04 14:04:27;;;;;;;2.20;1.73;;;;;;;;;;4986552;28;20457;-78
2022/02/04 14:07:07;;;;;;;2.27;2.07;;;;;;;;;;4985786;28;20490;-78
2022/02/04 14:09:37;;;;;;;3.83;2.17;;;;;;;;;;4985519;28;20483;-78
2022/02/04 14:12:15;;;;;;;2.50;1.97;;;;;;;;;;4977175;28;20595;-78
2022/02/04 14:14:42;;;;;;;3.93;2.03;;;;;;;;;;4975095;28;20786;-77
2022/02/04 14:17:10;;;;;;;2.83;1.90;;;;;;;;;;4974750;28;20470;-78
2022/02/04 14:19:38;;;;;;;6.50;2.27;;;;;;;;;;4988065;28;20460;-77
2022/02/04 14:22:07;;;;;;;2.90;1.87;;;;;;;;;;4988513;28;20436;-78
2022/02/04 14:24:34;;;;;;;2.13;1.93;;;;;;;;;;4987330;28;20510;-78
2022/02/04 14:27:03;;;;;;;2.40;1.77;;;;;;;;;;4984976;28;20462;-79
2022/02/04 14:29:37;;;;;;;3.37;2.10;;;;;;;;;;4980852;28;20521;-78
2022/02/04 14:32:11;;;;;;;2.87;2.07;;;;;;;;;;4977206;28;20488;-77
2022/02/04 14:34:54;;;;;;;2.60;1.90;;;;;;;;;;4973287;28;20472;-78
2022/02/04 14:37:40;;;;;;;8.10;1.97;;;;;;;;;;4986920;28;20446;-78
2022/02/04 14:53:41;;;;;;;2.90;1.60;;;;;;;;;;5007398;28;20471;-78
2022/02/04 15:01:33;;;;;;;5.30;2.67;;;;;;;;;;4997877;28;20464;-82
2022/02/04 15:04:05;;;;;;;5.43;1.63;;;;;;;;;;5003781;28;20462;-81
2022/02/04 15:06:36;;;;;;;3.90;1.90;;;;;;;;;;5013954;28;20535;-82
2022/02/04 15:09:05;;;;;;;2.30;1.43;;;;;;;;;;5009751;28;20453;-81
2022/02/04 15:11:35;;;;;;;2.83;1.50;;;;;;;;;;5007981;28;20490;-79
2022/02/04 15:14:03;;;;;;;3.40;1.90;;;;;;;;;;5007134;28;20482;-80
2022/02/04 15:16:31;;;;;;;5.43;2.20;;;;;;;;;;5008167;28;20443;-79
2022/02/04 15:18:58;;;;;;;2.60;1.60;;;;;;;;;;5005457;28;20975;-79
2022/02/04 15:21:25;;;;;;;4.80;1.70;;;;;;;;;;5007753;28;20471;-77
2022/02/04 15:23:55;;;;;;;2.73;1.63;;;;;;;;;;5013052;28;20453;-77
2022/02/04 15:26:22;;;;;;;1.63;1.40;;;;;;;;;;5014264;28;20458;-80
2022/02/04 15:28:55;;;;;;;2.10;1.40;;;;;;;;;;5004915;28;20967;-82
2022/02/04 15:34:09;;;;;;;2.10;1.47;;;;;;;;;;4803622;26;20494;-80
2022/02/04 15:36:40;;;;;;;3.30;2.10;;;;;;;;;;5007744;28;20529;-79
2022/02/04 15:39:10;;;;;;;3.90;1.87;;;;;;;;;;5001345;28;20483;-80
2022/02/04 15:41:38;;;;;;;2.60;1.33;;;;;;;;;;4987266;28;20796;-77
2022/02/04 15:44:12;;;;;;;1.60;1.50;;;;;;;;;;4984079;28;20455;-77
2022/02/04 15:46:49;;;;;;;2.60;1.40;;;;;;;;;;4988143;28;20996;-76
2022/02/04 15:49:26;;;;;;;2.53;1.37;;;;;;;;;;4987331;28;20970;-78
2022/02/04 15:54:46;;;;;;;4.77;2.20;;;;;;;;;;4984214;28;20444;-78
2022/02/04 15:57:30;;;;;;;5.33;2.13;;;;;;;;;;4989999;28;20490;-77
2022/02/04 16:00:15;;;;;;;3.40;1.43;;;;;;;;;;4990106;28;20467;-78
2022/02/04 16:02:59;;;;;;;2.10;1.43;;;;;;;;;;4989365;28;20871;-78
2022/02/04 16:05:27;;;;;;;4.60;1.77;;;;;;;;;;4986591;28;21023;-77
2022/02/04 16:07:56;;;;;;;2.03;1.10;;;;;;;;;;4986671;28;20842;-76
2022/02/04 16:10:32;;;;;;;2.30;1.40;;;;;;;;;;4989744;28;21020;-76
2022/02/04 16:13:10;;;;;;;1.63;1.33;;;;;;;;;;4983658;28;20483;-76
2022/02/04 16:15:49;;;;;;;2.90;1.40;;;;;;;;;;4994115;28;20451;-79
2022/02/04 16:18:20;;;;;;;3.83;1.50;;;;;;;;;;4993832;28;20451;-78
2022/02/04 16:21:03;;;;;;;2.80;1.20;;;;;;;;;;4993032;28;20479;-77
2022/02/04 16:23:34;;;;;;;2.50;1.10;;;;;;;;;;4994668;28;20448;-79
2022/02/04 16:26:24;;;;;;;6.83;2.07;;;;;;;;;;4996112;28;20448;-77
2022/02/04 16:28:51;;;;;;;2.17;1.50;;;;;;;;;;4990760;28;20459;-76
2022/02/04 16:31:19;;;;;;;2.40;1.30;;;;;;;;;;4989424;28;20524;-75
2022/02/04 16:33:47;;;;;;;2.87;1.63;;;;;;;;;;4992460;28;20476;-77
2022/02/04 16:36:16;;;;;;;2.10;1.40;;;;;;;;;;4982548;28;20443;-76
2022/02/04 16:38:46;;;;;;;1.53;1.40;;;;;;;;;;4991789;28;20447;-76
2022/02/04 16:41:19;;;;;;;3.23;2.07;;;;;;;;;;4989593;28;20491;-77
2022/02/04 16:43:46;;;;;;;4.27;1.90;;;;;;;;;;4987961;28;20949;-78
2022/02/04 16:46:13;;;;;;;2.10;1.30;;;;;;;;;;4990692;28;21417;-78
2022/02/04 16:48:41;;;;;;;3.33;1.43;;;;;;;;;;4989422;28;21348;-76
2022/02/04 16:51:08;;;;;;;3.03;1.33;;;;;;;;;;4980798;28;20492;-76
2022/02/04 16:53:36;;;;;;;2.53;1.50;;;;;;;;;;4988266;28;20486;-78
2022/02/04 16:56:03;;;;;;;2.17;1.40;;;;;;;;;;4990249;28;20444;-75
2022/02/04 16:58:31;;;;;;;5.10;2.37;;;;;;;;;;4991881;28;20770;-76
2022/02/04 17:00:59;;;;;;;4.70;2.63;;;;;;;;;;4991799;28;20476;-78
2022/02/04 17:03:26;;;;;;;4.07;2.20;;;;;;;;;;4993410;28;20540;-75
2022/02/04 17:05:56;;;;;;;2.30;1.80;;;;;;;;;;4989350;28;20472;-77
2022/02/04 17:08:33;;;;;;;2.33;2.03;;;;;;;;;;4990766;28;20454;-76
2022/02/04 17:11:01;;;;;;;1.80;1.60;;;;;;;;;;4991449;28;20965;-78
2022/02/04 17:13:28;;;;;;;2.65;1.85;;;;;;;;;;4991178;28;20274;-77
2022/02/04 17:15:57;;;;;;;3.85;1.70;;;;;;;;;;4991938;28;20733;-79
2022/02/04 17:18:24;;;;;;;1.63;1.52;;;;;;;;;;4983662;28;20197;-77
2022/02/04 17:20:51;;;;;;;2.90;1.45;;;;;;;;;;4991449;28;20224;-76
2022/02/04 17:23:27;;;;;;;5.20;1.63;;;;;;;;;;4989322;28;20280;-76
2022/02/04 17:25:57;;;;;;;1.30;1.00;;;;;;;;;;4988853;28;20200;-76
2022/02/04 17:28:27;;;;;;;1.20;1.10;;;;;;;;;;4990926;28;20239;-75
2022/02/04 17:30:54;;;;;;;1.00;0.90;;;;;;;;;;4988365;28;20210;-76
2022/02/04 17:33:23;;;;;;;1.65;1.30;;;;;;;;;;4985128;28;20235;-78
2022/02/04 17:35:50;;;;;;;2.97;2.10;;;;;;;;;;4983355;28;20201;-78
2022/02/04 17:38:18;;;;;;;2.90;1.88;;;;;;;;;;4986506;28;20204;-76
2022/02/04 17:40:45;;;;;;;2.28;1.30;;;;;;;;;;4991307;28;20221;-76
2022/02/04 17:43:12;;;;;;;1.88;1.50;;;;;;;;;;4985732;28;20574;-76
2022/02/04 17:45:39;;;;;;;1.73;1.50;;;;;;;;;;4989411;28;20681;-76
2022/02/04 17:48:09;;;;;;;2.92;2.60;;;;;;;;;;4973291;28;20702;-76
2022/02/04 17:50:48;;;;;;;1.90;1.80;;;;;;;;;;4984473;28;20225;-75
2022/02/04 17:53:19;;;;;;;2.22;1.92;;;;;;;;;;4991216;28;20220;-76
2022/02/04 17:55:52;;;;;;;2.70;2.25;;;;;;;;;;4989664;28;20622;-76
2022/02/04 17:58:26;;;;;;;3.17;2.80;;;;;;;;;;4984096;28;20223;-76
2022/02/04 18:01:00;;;;;;;3.45;3.03;;;;;;;;;;4984677;28;20231;-76
2022/02/04 18:03:36;;;;;;;3.63;3.30;;;;;;;;;;4987510;28;20208;-76
2022/02/04 18:06:09;;;;;;;4.07;3.53;;;;;;;;;;4981502;28;20307;-78
2022/02/04 18:08:36;;;;;;;4.72;4.30;;;;;;;;;;4990863;28;20770;-74
2022/02/04 18:11:05;;;;;;;3.83;3.42;;;;;;;;;;4988126;28;20217;-79
2022/02/04 18:13:32;;;;;;;4.00;3.70;;;;;;;;;;4980229;28;20228;-77
2022/02/04 18:16:00;;;;;;;3.38;3.08;;;;;;;;;;4987683;28;20240;-76
2022/02/04 18:18:28;;;;;;;2.95;2.75;;;;;;;;;;4985858;28;20207;-76
2022/02/04 18:20:56;;;;;;;3.33;3.03;;;;;;;;;;4977197;28;20213;-76
2022/02/04 18:23:25;;;;;;;3.00;2.80;;;;;;;;;;4991388;28;20192;-75
2022/02/04 18:25:53;;;;;;;4.68;3.28;;;;;;;;;;4992267;28;20192;-76
2022/02/04 18:28:21;;;;;;;3.30;2.55;;;;;;;;;;4992217;28;20188;-82
2022/02/04 18:30:49;;;;;;;5.95;2.75;;;;;;;;;;4991390;28;20225;-79
2022/02/04 18:33:16;;;;;;;4.88;3.70;;;;;;;;;;4988250;28;20235;-76
2022/02/04 18:35:46;;;;;;;5.13;4.63;;;;;;;;;;4992180;28;20196;-77
2022/02/04 18:38:18;;;;;;;8.70;6.05;;;;;;;;;;4986419;28;20205;-77
2022/02/04 18:41:10;;;;;;;4.32;3.92;;;;;;;;;;4988047;28;20214;-77
2022/02/04 18:43:43;;;;;;;4.13;3.70;;;;;;;;;;4988551;28;20200;-78
2022/02/04 18:46:31;;;;;;;5.45;2.95;;;;;;;;;;4988607;28;20204;-79
2022/02/04 18:49:10;;;;;;;5.05;3.50;;;;;;;;;;4989424;28;20188;-77
2022/02/04 18:51:47;;;;;;;4.10;3.50;;;;;;;;;;4988820;28;20681;-79
2022/02/04 18:54:29;;;;;;;3.47;2.70;;;;;;;;;;4987273;28;20231;-77
2022/02/04 18:59:47;;;;;;;5.40;3.83;;;;;;;;;;4985412;28;20220;-79
2022/02/04 19:02:15;;;;;;;6.50;3.90;;;;;;;;;;4987919;28;20205;-77
2022/02/04 19:04:50;;;;;;;3.33;2.63;;;;;;;;;;4989400;28;20490;-77
2022/02/04 19:07:21;;;;;;;6.78;2.90;;;;;;;;;;4986929;28;20200;-77
2022/02/04 19:09:50;;;;;;;5.43;2.72;;;;;;;;;;4989572;28;20224;-76
2022/02/04 19:12:22;;;;;;;5.30;3.42;;;;;;;;;;4990330;28;20201;-78
2022/02/04 19:14:55;;;;;;;3.25;2.08;;;;;;;;;;4991618;28;20617;-82
2022/02/04 19:17:29;;;;;;;3.17;2.10;;;;;;;;;;4991290;28;20205;-82
2022/02/04 19:20:04;;;;;;;3.25;2.85;;;;;;;;;;4987962;28;20223;-75
2022/02/04 19:22:35;;;;;;;3.83;2.60;;;;;;;;;;4988930;28;20196;-76
2022/02/04 19:25:05;;;;;;;6.22;2.35;;;;;;;;;;4984421;28;20651;-77
2022/02/04 19:27:33;;;;;;;4.28;2.15;;;;;;;;;;4983695;28;20189;-75
2022/02/04 19:30:02;;;;;;;5.60;2.30;;;;;;;;;;4985991;28;20221;-76
2022/02/04 19:32:30;;;;;;;3.70;2.25;;;;;;;;;;4987335;28;20298;-75
2022/02/04 19:34:59;;;;;;;6.93;3.50;;;;;;;;;;4985754;28;20224;-76
2022/02/04 19:37:26;;;;;;;5.75;3.10;;;;;;;;;;4989037;28;20193;-78
2022/02/04 19:39:53;;;;;;;5.45;3.40;;;;;;;;;;4988833;28;20221;-75
2022/02/04 19:42:25;;;;;;;3.13;2.40;;;;;;;;;;4984420;28;20200;-77
2022/02/04 19:44:56;;;;;;;12.48;3.45;;;;;;;;;;4984158;28;20205;-76
2022/02/04 19:47:29;;;;;;;7.25;2.70;;;;;;;;;;4989971;28;20272;-76
2022/02/04 19:50:11;;;;;;;4.50;2.90;;;;;;;;;;4991050;28;20220;-76
2022/02/04 19:52:55;;;;;;;4.88;2.25;;;;;;;;;;4987961;28;20203;-76
2022/02/04 19:55:44;;;;;;;5.88;3.15;;;;;;;;;;4989246;28;20235;-77
2022/02/04 20:17:34;;;;;;;7.95;4.20;;;;;;;;;;4988758;28;20287;-77
2022/02/04 20:25:19;;;;;;;9.40;3.72;;;;;;;;;;4987213;28;20741;-76
2022/02/04 20:27:46;;;;;;;6.90;3.80;;;;;;;;;;4988486;28;20193;-76
2022/02/04 20:30:14;;;;;;;8.10;4.25;;;;;;;;;;4989374;28;20219;-78
2022/02/04 20:32:44;;;;;;;9.02;3.90;;;;;;;;;;4990109;28;21025;-75
2022/02/04 20:35:11;;;;;;;10.77;4.72;;;;;;;;;;4990013;28;21037;-76
2022/02/04 20:37:39;;;;;;;5.00;3.72;;;;;;;;;;4989851;28;20197;-76
2022/02/04 20:40:15;;;;;;;6.63;3.70;;;;;;;;;;4989947;28;20231;-78
2022/02/04 20:42:42;;;;;;;12.07;3.90;;;;;;;;;;4992169;28;20295;-76
2022/02/04 20:45:09;;;;;;;6.85;3.70;;;;;;;;;;4991122;28;20667;-76
2022/02/04 20:47:41;;;;;;;11.05;4.10;;;;;;;;;;4986142;28;20665;-76
2022/02/04 20:50:10;;;;;;;8.90;4.18;;;;;;;;;;4986955;28;20213;-75
2022/02/04 20:52:38;;;;;;;9.73;4.00;;;;;;;;;;4989312;28;20235;-76